Time;durP1;ratioP1;P1;durP2;ratioP2;P2;SDS_P1;SDS_P2;PMS_P1;PMS_P2;Temp;Humidity;BMP_temperature;BMP_pressure;BME280_temperature;BME280_humidity;BME280_pressure;Samples;Min_cycle;Max_cycle;Signal;HPM_P1;HPM_P2
2021/06/03 00:02:00;;;;;;;6.10;5.60;;;24.50;55.40;;;;;;5032948;28;20030;-41
2021/06/03 00:04:25;;;;;;;5.95;5.35;;;24.50;55.30;;;;;;5041609;28;20083;-35
2021/06/03 00:06:51;;;;;;;5.47;5.10;;;24.40;55.80;;;;;;5034429;28;20210;-44
2021/06/03 00:09:17;;;;;;;6.47;5.88;;;24.40;55.20;;;;;;5038031;28;20124;-42
2021/06/03 00:11:42;;;;;;;5.85;5.50;;;24.40;55.50;;;;;;5044489;28;20561;-42
2021/06/03 00:14:08;;;;;;;5.60;5.30;;;24.30;55.80;;;;;;5045842;28;20505;-40
2021/06/03 00:16:34;;;;;;;6.03;5.45;;;24.40;55.60;;;;;;5033152;28;20037;-36
2021/06/03 00:19:04;;;;;;;6.10;5.70;;;24.40;55.70;;;;;;5047449;28;20036;-36
2021/06/03 00:21:29;;;;;;;5.40;5.00;;;24.50;55.10;;;;;;5053442;28;20017;-38
2021/06/03 00:23:55;;;;;;;6.15;5.75;;;24.30;55.20;;;;;;5049835;28;20037;-42
2021/06/03 00:26:21;;;;;;;6.97;5.63;;;24.30;55.40;;;;;;5045125;28;20105;-38
2021/06/03 00:28:47;;;;;;;6.47;6.07;;;24.30;55.50;;;;;;5048105;28;20028;-40
2021/06/03 00:31:12;;;;;;;5.18;4.88;;;24.30;55.50;;;;;;5033160;28;20021;-36
2021/06/03 00:33:38;;;;;;;5.70;5.40;;;24.20;55.60;;;;;;5045399;28;20083;-37
2021/06/03 00:36:04;;;;;;;5.65;5.35;;;24.20;55.40;;;;;;5043600;28;20052;-40
2021/06/03 00:38:29;;;;;;;5.35;4.95;;;24.20;55.60;;;;;;5050155;28;20025;-40
2021/06/03 00:40:55;;;;;;;5.25;4.65;;;24.20;55.50;;;;;;5064592;28;20021;-37
2021/06/03 00:43:20;;;;;;;5.63;5.10;;;24.20;55.80;;;;;;5053540;28;20033;-38
2021/06/03 00:45:46;;;;;;;5.55;5.15;;;24.20;55.80;;;;;;5041630;28;20068;-37
2021/06/03 00:48:12;;;;;;;5.40;4.93;;;24.10;55.70;;;;;;5041383;28;20044;-35
2021/06/03 00:50:43;;;;;;;5.55;5.25;;;24.10;55.80;;;;;;5043198;28;20035;-38
2021/06/03 00:53:10;;;;;;;5.45;5.05;;;24.10;55.70;;;;;;5049657;28;20518;-38
2021/06/03 00:55:37;;;;;;;5.38;5.07;;;24.10;55.60;;;;;;5035822;28;20155;-37
2021/06/03 00:58:03;;;;;;;6.18;5.60;;;24.10;56.10;;;;;;5060150;28;20123;-39
2021/06/03 01:00:28;;;;;;;5.25;4.95;;;24.10;56.00;;;;;;5063541;28;20135;-39
2021/06/03 01:02:54;;;;;;;5.07;4.78;;;24.00;55.90;;;;;;5062308;28;20139;-40
2021/06/03 01:05:28;;;;;;;5.38;5.10;;;24.00;55.70;;;;;;5065404;28;20028;-36
2021/06/03 01:07:55;;;;;;;5.45;5.05;;;24.00;55.90;;;;;;5053248;28;20446;-36
2021/06/03 01:10:28;;;;;;;5.72;5.32;;;24.00;55.90;;;;;;5051789;28;20028;-34
2021/06/03 01:13:27;;;;;;;5.45;5.15;;;23.90;56.00;;;;;;5056816;28;20033;-39
2021/06/03 01:15:53;;;;;;;6.10;5.70;;;23.90;56.20;;;;;;5057116;28;20033;-34
2021/06/03 01:18:18;;;;;;;5.57;5.18;;;23.90;56.00;;;;;;5056271;28;20025;-36
2021/06/03 01:20:45;;;;;;;6.03;5.63;;;23.90;55.90;;;;;;5053751;28;20041;-36
2021/06/03 01:23:14;;;;;;;5.90;5.57;;;23.90;55.90;;;;;;5054977;28;20077;-39
2021/06/03 01:25:40;;;;;;;5.70;5.30;;;23.90;55.90;;;;;;5033508;28;20064;-37
2021/06/03 01:28:05;;;;;;;5.65;5.28;;;23.90;56.00;;;;;;5053688;28;20065;-37
2021/06/03 01:30:36;;;;;;;5.45;5.15;;;23.90;55.80;;;;;;5036681;28;20032;-37
2021/06/03 01:33:24;;;;;;;4.97;4.63;;;23.90;56.20;;;;;;5054029;28;20033;-39
2021/06/03 01:35:52;;;;;;;4.88;4.57;;;23.90;55.80;;;;;;5038388;28;20036;-40
2021/06/03 01:38:19;;;;;;;5.47;5.15;;;23.80;55.90;;;;;;5055069;28;20035;-37
2021/06/03 01:40:46;;;;;;;5.25;4.95;;;23.80;56.10;;;;;;5051180;28;20033;-36
2021/06/03 01:43:12;;;;;;;5.88;5.47;;;23.80;55.90;;;;;;5066128;28;20819;-39
2021/06/03 01:45:38;;;;;;;5.60;5.22;;;23.80;55.90;;;;;;5055319;28;20391;-39
2021/06/03 01:48:04;;;;;;;5.25;4.95;;;23.80;56.10;;;;;;5036562;28;20468;-38
2021/06/03 01:50:30;;;;;;;5.88;5.47;;;23.80;56.20;;;;;;5036154;28;20110;-33
2021/06/03 01:52:56;;;;;;;5.68;5.28;;;23.70;56.00;;;;;;5035018;28;20507;-37
2021/06/03 01:55:21;;;;;;;5.43;5.13;;;23.80;56.30;;;;;;5034436;28;20543;-41
2021/06/03 01:57:47;;;;;;;5.72;5.43;;;23.80;56.10;;;;;;5073342;28;20029;-38
2021/06/03 02:00:14;;;;;;;6.38;5.85;;;23.80;55.80;;;;;;5052611;28;20498;-37
2021/06/03 02:02:40;;;;;;;5.63;5.25;;;23.80;56.00;;;;;;5054334;28;20494;-40
2021/06/03 02:05:06;;;;;;;5.32;5.03;;;23.80;55.60;;;;;;5065574;28;20027;-38
2021/06/03 02:07:32;;;;;;;5.35;5.00;;;23.80;56.10;;;;;;5051378;28;20515;-37
2021/06/03 02:09:58;;;;;;;5.70;5.30;;;23.80;55.80;;;;;;5056294;28;20126;-37
2021/06/03 02:12:24;;;;;;;5.55;5.10;;;23.70;55.80;;;;;;5053955;28;20102;-39
2021/06/03 02:14:50;;;;;;;6.72;6.30;;;23.70;56.30;;;;;;5052910;28;20064;-31
2021/06/03 02:17:33;;;;;;;5.95;5.53;;;23.70;56.00;;;;;;5036044;28;20028;-39
2021/06/03 02:20:08;;;;;;;5.50;5.10;;;23.70;56.00;;;;;;5052213;28;20046;-40
2021/06/03 02:22:34;;;;;;;5.93;5.60;;;23.70;56.10;;;;;;5054908;28;20029;-37
2021/06/03 02:25:00;;;;;;;5.88;5.57;;;23.70;56.00;;;;;;5087509;28;20393;-39
2021/06/03 02:27:25;;;;;;;6.32;5.88;;;23.70;55.70;;;;;;5054506;28;20100;-37
2021/06/03 02:29:51;;;;;;;5.43;5.13;;;23.70;56.10;;;;;;5035467;28;20048;-36
2021/06/03 02:32:19;;;;;;;6.13;5.82;;;23.70;55.80;;;;;;5035975;28;20019;-40
2021/06/03 02:34:47;;;;;;;5.80;5.47;;;23.70;56.00;;;;;;5033166;28;20037;-38
2021/06/03 02:37:13;;;;;;;4.97;4.78;;;23.70;56.20;;;;;;5034604;28;20053;-40
2021/06/03 02:39:40;;;;;;;5.45;5.07;;;23.60;55.90;;;;;;5053932;28;20029;-37
2021/06/03 02:42:06;;;;;;;5.80;5.50;;;23.70;55.90;;;;;;5057872;28;20060;-37
2021/06/03 02:44:36;;;;;;;5.50;5.20;;;23.70;55.60;;;;;;5061858;28;20052;-35
2021/06/03 02:47:03;;;;;;;5.45;5.15;;;23.70;56.20;;;;;;5034803;28;20046;-37
2021/06/03 02:49:29;;;;;;;5.18;4.88;;;23.60;55.90;;;;;;5062806;28;20436;-39
2021/06/03 02:51:55;;;;;;;4.90;4.70;;;23.60;56.00;;;;;;5056945;28;20052;-39
2021/06/03 02:54:20;;;;;;;5.22;4.90;;;23.60;56.10;;;;;;5061927;28;20031;-34
2021/06/03 02:56:46;;;;;;;5.43;5.05;;;23.60;56.30;;;;;;5059757;28;20026;-36
2021/06/03 02:59:12;;;;;;;5.20;4.97;;;23.50;56.80;;;;;;5053202;28;20059;-39
2021/06/03 03:01:37;;;;;;;5.40;5.20;;;23.50;57.50;;;;;;5048908;28;20032;-32
2021/06/03 03:04:03;;;;;;;5.40;5.10;;;23.50;56.40;;;;;;5067436;28;20032;-39
2021/06/03 03:06:29;;;;;;;5.75;5.30;;;23.60;56.30;;;;;;5053378;28;20108;-37
2021/06/03 03:08:54;;;;;;;5.45;5.07;;;23.70;56.60;;;;;;5055359;28;20674;-35
2021/06/03 03:11:20;;;;;;;11.27;5.45;;;23.60;56.60;;;;;;5056995;28;20063;-35
2021/06/03 03:13:45;;;;;;;4.85;4.65;;;23.60;56.80;;;;;;5050940;28;20036;-37
2021/06/03 03:16:11;;;;;;;4.80;4.57;;;23.70;56.90;;;;;;5054770;28;20025;-35
2021/06/03 03:18:36;;;;;;;5.35;5.05;;;23.70;56.90;;;;;;5054431;28;20492;-37
2021/06/03 03:21:05;;;;;;;5.30;4.90;;;23.60;56.70;;;;;;5052619;28;20036;-40
2021/06/03 03:23:31;;;;;;;5.15;4.95;;;23.60;56.90;;;;;;5052963;28;20472;-36
2021/06/03 03:25:57;;;;;;;5.38;5.07;;;23.60;56.80;;;;;;5050955;28;20061;-39
2021/06/03 03:28:23;;;;;;;5.35;4.95;;;23.60;56.80;;;;;;5056396;28;20082;-43
2021/06/03 03:30:48;;;;;;;5.72;5.43;;;23.60;56.80;;;;;;5053945;28;20158;-36
2021/06/03 03:33:14;;;;;;;5.80;5.40;;;23.60;57.50;;;;;;5052637;28;20108;-38
2021/06/03 03:35:47;;;;;;;5.80;5.40;;;23.60;56.80;;;;;;5052752;28;20025;-37
2021/06/03 03:38:16;;;;;;;5.60;5.30;;;23.60;56.80;;;;;;5035834;28;20052;-36
2021/06/03 03:40:42;;;;;;;5.65;5.35;;;23.50;57.00;;;;;;5046702;28;20115;-37
2021/06/03 03:43:08;;;;;;;5.63;5.32;;;23.50;57.00;;;;;;5055209;28;20103;-34
2021/06/03 03:45:34;;;;;;;5.35;5.05;;;23.50;56.90;;;;;;5052523;28;20021;-34
2021/06/03 03:48:02;;;;;;;5.00;4.80;;;23.50;56.90;;;;;;5052391;28;20066;-42
2021/06/03 03:50:28;;;;;;;5.63;5.32;;;23.50;57.10;;;;;;5052115;28;20058;-35
2021/06/03 03:52:53;;;;;;;5.63;5.25;;;23.50;57.10;;;;;;5051343;28;20017;-37
2021/06/03 03:55:19;;;;;;;4.75;4.55;;;23.50;57.00;;;;;;5051879;28;20139;-34
2021/06/03 03:57:45;;;;;;;5.07;4.78;;;23.50;57.00;;;;;;5055120;28;20033;-38
2021/06/03 04:00:18;;;;;;;5.85;5.55;;;23.50;57.00;;;;;;5052036;28;20159;-34
2021/06/03 04:02:44;;;;;;;6.03;5.72;;;23.50;56.90;;;;;;5052899;28;20078;-35
2021/06/03 04:05:10;;;;;;;5.82;5.53;;;23.50;57.00;;;;;;5045918;28;20095;-38
2021/06/03 04:07:37;;;;;;;5.20;5.00;;;23.50;57.00;;;;;;5047912;28;20502;-35
2021/06/03 04:10:06;;;;;;;5.38;5.07;;;23.50;57.00;;;;;;5054997;28;20025;-37
2021/06/03 04:12:31;;;;;;;6.03;5.70;;;23.50;57.10;;;;;;5034301;28;20035;-39
2021/06/03 04:14:57;;;;;;;5.25;4.95;;;23.50;57.10;;;;;;5052082;28;20029;-36
2021/06/03 04:17:23;;;;;;;6.28;5.88;;;23.50;57.10;;;;;;5052054;28;20111;-37
2021/06/03 04:19:48;;;;;;;6.32;5.93;;;23.50;57.00;;;;;;5048685;28;20017;-36
2021/06/03 04:22:14;;;;;;;5.35;5.05;;;23.50;57.00;;;;;;5052748;28;20479;-33
2021/06/03 04:24:39;;;;;;;5.53;5.22;;;23.50;57.00;;;;;;5056798;28;20041;-37
2021/06/03 04:27:05;;;;;;;6.00;5.68;;;23.50;57.00;;;;;;5053490;28;20029;-37
2021/06/03 04:29:31;;;;;;;6.95;6.55;;;23.50;56.90;;;;;;5051846;28;20552;-36
2021/06/03 04:31:56;;;;;;;6.10;5.80;;;23.40;56.50;;;;;;5050060;28;20049;-38
2021/06/03 04:34:22;;;;;;;6.65;6.25;;;23.60;56.00;;;;;;5050915;28;20480;-37
2021/06/03 04:36:47;;;;;;;6.65;6.25;;;23.70;55.70;;;;;;5057957;28;20024;-36
2021/06/03 04:39:13;;;;;;;6.88;6.47;;;23.70;55.50;;;;;;5054314;28;20064;-35
2021/06/03 04:41:39;;;;;;;6.82;6.38;;;23.70;55.50;;;;;;5060132;28;20036;-34
2021/06/03 04:44:04;;;;;;;7.45;6.82;;;23.70;56.10;;;;;;5057588;28;20549;-34
2021/06/03 04:46:30;;;;;;;6.88;6.43;;;23.70;55.50;;;;;;5048854;28;20049;-38
2021/06/03 04:48:55;;;;;;;6.93;6.53;;;23.60;55.80;;;;;;5055217;28;20064;-41
2021/06/03 04:51:21;;;;;;;6.15;5.65;;;23.60;55.90;;;;;;5051536;28;20025;-38
2021/06/03 04:53:46;;;;;;;7.40;6.82;;;23.60;56.00;;;;;;5035945;28;20032;-33
2021/06/03 04:56:12;;;;;;;6.47;6.10;;;23.60;56.30;;;;;;5061773;28;20108;-40
2021/06/03 04:58:38;;;;;;;6.90;6.50;;;23.80;55.60;;;;;;5050447;28;20079;-39
2021/06/03 05:01:03;;;;;;;6.68;6.28;;;23.80;55.50;;;;;;5057177;28;20032;-42
2021/06/03 05:03:29;;;;;;;6.43;6.03;;;23.70;55.60;;;;;;5058191;28;20085;-39
2021/06/03 05:05:54;;;;;;;6.10;5.60;;;23.70;55.90;;;;;;5056938;28;20040;-36
2021/06/03 05:08:20;;;;;;;5.65;5.35;;;23.70;56.00;;;;;;5051097;28;20407;-36
2021/06/03 05:10:46;;;;;;;7.10;6.70;;;23.90;55.90;;;;;;5049171;28;20033;-39
2021/06/03 05:13:12;;;;;;;9.48;8.57;;;23.90;55.80;;;;;;5052725;28;20031;-41
2021/06/03 05:15:37;;;;;;;9.60;8.80;;;23.90;55.10;;;;;;5053752;28;20025;-40
2021/06/03 05:18:03;;;;;;;9.88;8.88;;;24.00;54.60;;;;;;5051417;28;20029;-39
2021/06/03 05:20:29;;;;;;;10.45;9.32;;;24.00;54.50;;;;;;5048013;28;20055;-40
2021/06/03 05:22:56;;;;;;;9.70;8.73;;;23.90;54.60;;;;;;5044849;28;20021;-40
2021/06/03 05:25:23;;;;;;;10.57;9.68;;;23.80;54.70;;;;;;5052740;28;20143;-32
2021/06/03 05:27:49;;;;;;;11.15;10.20;;;23.90;54.70;;;;;;5052253;28;20406;-33
2021/06/03 05:30:16;;;;;;;11.00;10.00;;;24.00;54.20;;;;;;5054949;28;20562;-35
2021/06/03 05:32:41;;;;;;;11.20;10.10;;;24.10;54.20;;;;;;4701886;28;9999784;-30
2021/06/03 05:35:10;;;;;;;11.63;10.52;;;23.90;54.50;;;;;;5051682;28;20028;-36
2021/06/03 05:37:35;;;;;;;11.63;10.50;;;24.00;54.20;;;;;;5051477;28;20097;-40
2021/06/03 05:40:01;;;;;;;12.52;11.07;;;24.10;54.20;;;;;;5054920;28;20498;-36
2021/06/03 05:42:26;;;;;;;14.88;10.13;;;24.00;54.00;;;;;;5050466;28;20067;-39
2021/06/03 05:44:52;;;;;;;13.27;11.13;;;23.90;54.10;;;;;;5037922;28;20414;-34
2021/06/03 05:47:18;;;;;;;11.75;10.60;;;23.90;54.30;;;;;;5038898;28;20418;-39
2021/06/03 05:49:43;;;;;;;12.50;11.23;;;23.90;54.30;;;;;;5036139;28;20033;-40
2021/06/03 05:52:09;;;;;;;11.95;10.45;;;23.90;54.30;;;;;;5038373;28;20087;-38
2021/06/03 05:54:35;;;;;;;12.63;11.43;;;23.90;54.10;;;;;;5037694;28;20032;-35
2021/06/03 05:57:00;;;;;;;12.75;11.35;;;23.70;54.70;;;;;;5037231;28;20886;-33
2021/06/03 05:59:27;;;;;;;13.63;12.32;;;23.80;54.30;;;;;;5036731;28;21007;-37
2021/06/03 06:01:57;;;;;;;12.77;11.68;;;23.90;54.20;;;;;;5037813;28;20036;-36
2021/06/03 06:06:49;;;;;;;13.85;12.45;;;23.90;54.10;;;;;;5038461;28;20120;-34
2021/06/03 06:09:14;;;;;;;13.18;11.77;;;23.80;54.20;;;;;;5037420;28;20041;-42
2021/06/03 06:11:42;;;;;;;12.57;11.40;;;23.80;54.50;;;;;;5037937;28;20544;-38
2021/06/03 06:14:07;;;;;;;13.25;11.85;;;23.80;54.40;;;;;;5038394;28;20107;-36
2021/06/03 06:16:34;;;;;;;12.43;11.23;;;23.80;54.50;;;;;;5037469;28;20723;-33
2021/06/03 06:18:59;;;;;;;13.55;12.23;;;23.70;54.80;;;;;;5040525;28;20048;-45
2021/06/03 06:21:25;;;;;;;14.55;13.00;;;23.70;54.70;;;;;;5021318;28;20119;-32
2021/06/03 06:23:51;;;;;;;13.15;11.90;;;23.70;54.90;;;;;;5040254;28;20061;-42
2021/06/03 06:26:16;;;;;;;12.48;11.48;;;23.80;54.90;;;;;;5021730;28;20463;-38
2021/06/03 06:28:42;;;;;;;13.43;12.02;;;23.80;54.80;;;;;;5039850;28;20045;-38
2021/06/03 06:31:08;;;;;;;12.77;11.48;;;23.80;54.70;;;;;;5039442;28;20029;-32
2021/06/03 06:33:34;;;;;;;11.75;10.50;;;23.80;54.80;;;;;;5041494;28;20514;-31
2021/06/03 06:36:00;;;;;;;11.52;10.52;;;23.70;55.10;;;;;;5060551;28;20125;-33
2021/06/03 06:38:26;;;;;;;11.60;10.50;;;23.40;55.60;;;;;;5061966;28;20021;-35
2021/06/03 06:40:52;;;;;;;10.15;9.15;;;23.50;55.50;;;;;;5053607;28;20053;-31
2021/06/03 06:43:17;;;;;;;10.43;9.30;;;23.60;55.60;;;;;;5052896;28;20021;-33
2021/06/03 06:45:43;;;;;;;11.38;10.27;;;23.70;55.40;;;;;;5057625;28;20033;-29
2021/06/03 06:48:11;;;;;;;11.80;10.60;;;23.30;56.10;;;;;;5055347;28;20025;-30
2021/06/03 06:50:37;;;;;;;10.15;9.35;;;23.20;56.60;;;;;;5054184;28;20553;-30
2021/06/03 06:53:03;;;;;;;10.38;9.45;;;23.20;56.70;;;;;;5054548;28;20525;-31
2021/06/03 06:55:29;;;;;;;9.80;9.00;;;23.40;56.30;;;;;;5054482;28;20412;-28
2021/06/03 06:57:55;;;;;;;10.45;9.48;;;23.50;55.90;;;;;;5035403;28;20029;-30
2021/06/03 07:00:22;;;;;;;9.82;9.02;;;23.60;55.80;;;;;;5054317;28;20045;-31
2021/06/03 07:02:47;;;;;;;9.48;8.50;;;23.60;55.70;;;;;;5054386;28;20048;-32
2021/06/03 07:05:14;;;;;;;9.85;8.65;;;23.60;55.90;;;;;;5053316;28;20021;-33
2021/06/03 07:07:39;;;;;;;9.10;8.38;;;23.70;55.90;;;;;;5054357;28;20089;-34
2021/06/03 07:10:06;;;;;;;9.07;8.45;;;23.70;55.60;;;;;;5052953;28;20049;-32
2021/06/03 07:12:32;;;;;;;9.20;8.40;;;23.70;55.50;;;;;;5054122;28;20036;-31
2021/06/03 07:14:58;;;;;;;9.48;8.57;;;23.80;55.60;;;;;;5036197;28;20033;-31
2021/06/03 07:17:23;;;;;;;9.32;8.60;;;23.70;55.60;;;;;;5054158;28;20021;-28
2021/06/03 07:19:49;;;;;;;9.07;8.27;;;23.80;55.60;;;;;;5054027;28;20159;-30
2021/06/03 07:22:14;;;;;;;9.00;8.30;;;23.80;55.50;;;;;;5053582;28;20028;-30
2021/06/03 07:24:44;;;;;;;9.27;8.40;;;23.90;55.40;;;;;;5053862;28;20550;-34
2021/06/03 07:27:10;;;;;;;9.82;8.98;;;23.90;55.20;;;;;;5053878;28;20550;-32
2021/06/03 07:29:35;;;;;;;8.57;8.00;;;24.00;55.00;;;;;;5053979;28;20159;-34
2021/06/03 07:32:01;;;;;;;8.85;8.02;;;24.00;55.00;;;;;;5053127;28;20067;-36
2021/06/03 07:34:27;;;;;;;8.65;8.05;;;24.00;55.20;;;;;;5053575;28;20033;-32
2021/06/03 07:36:53;;;;;;;9.95;9.18;;;24.10;55.20;;;;;;5053045;28;20482;-29
2021/06/03 07:39:21;;;;;;;9.30;8.60;;;24.00;55.30;;;;;;5053689;28;20029;-30
2021/06/03 07:41:46;;;;;;;9.98;9.25;;;24.00;55.20;;;;;;5053680;28;20029;-31
2021/06/03 07:44:12;;;;;;;9.80;9.10;;;24.10;55.10;;;;;;5052938;28;20090;-30
2021/06/03 07:46:39;;;;;;;9.38;8.57;;;24.10;55.10;;;;;;5052885;28;20020;-29
2021/06/03 07:49:05;;;;;;;9.43;8.63;;;24.00;55.00;;;;;;5047695;28;20035;-33
2021/06/03 07:51:31;;;;;;;9.27;8.35;;;24.10;55.00;;;;;;5053490;28;20108;-34
2021/06/03 07:53:56;;;;;;;9.88;8.85;;;24.10;55.10;;;;;;5052845;28;20044;-31
2021/06/03 07:56:22;;;;;;;8.65;7.95;;;24.10;55.00;;;;;;5052574;28;20055;-30
2021/06/03 07:58:47;;;;;;;8.93;8.23;;;24.20;55.10;;;;;;5053529;28;20070;-36
2021/06/03 08:01:13;;;;;;;9.73;8.82;;;24.20;55.50;;;;;;5052472;28;20594;-33
2021/06/03 08:03:40;;;;;;;9.75;8.95;;;24.20;55.00;;;;;;5053094;28;20057;-29
2021/06/03 08:06:06;;;;;;;9.27;8.35;;;24.30;55.00;;;;;;5053228;28;20487;-34
2021/06/03 08:08:36;;;;;;;9.30;8.50;;;24.30;55.00;;;;;;5053172;28;20025;-30
2021/06/03 08:11:02;;;;;;;8.65;7.97;;;24.20;54.80;;;;;;5053353;28;20047;-33
2021/06/03 08:13:27;;;;;;;9.73;9.02;;;24.30;54.80;;;;;;5035218;28;20036;-31
2021/06/03 08:15:53;;;;;;;10.45;9.45;;;24.30;54.70;;;;;;5034200;28;20028;-32
2021/06/03 08:18:18;;;;;;;10.68;9.82;;;24.40;54.70;;;;;;5034668;28;20124;-30
2021/06/03 08:20:48;;;;;;;9.38;8.68;;;24.40;54.90;;;;;;5046324;28;20029;-31
2021/06/03 08:23:14;;;;;;;9.82;8.93;;;24.40;54.50;;;;;;5053072;28;20124;-31
2021/06/03 08:25:40;;;;;;;9.25;8.48;;;24.40;54.50;;;;;;5053090;28;20024;-32
2021/06/03 08:28:05;;;;;;;9.07;8.20;;;24.40;54.70;;;;;;5052168;28;20494;-29
2021/06/03 08:30:31;;;;;;;8.80;8.00;;;24.10;55.30;;;;;;5052557;28;20029;-31
2021/06/03 08:32:57;;;;;;;9.35;8.45;;;24.00;55.50;;;;;;5052880;28;20103;-33
2021/06/03 08:35:23;;;;;;;8.30;7.80;;;24.20;55.10;;;;;;5052968;28;20032;-28
2021/06/03 08:37:51;;;;;;;9.30;8.60;;;24.30;55.60;;;;;;5052382;28;20447;-33
2021/06/03 08:40:19;;;;;;;9.55;8.57;;;24.40;54.90;;;;;;5052255;28;20111;-33
2021/06/03 08:42:44;;;;;;;9.80;9.02;;;24.40;54.80;;;;;;5053450;28;20111;-29
2021/06/03 08:45:12;;;;;;;11.13;10.13;;;24.40;55.50;;;;;;5052598;28;20099;-29
2021/06/03 08:47:38;;;;;;;9.50;8.68;;;24.00;56.50;;;;;;5052647;28;20112;-32
2021/06/03 08:50:04;;;;;;;9.70;8.98;;;24.10;55.60;;;;;;5052832;28;20112;-29
2021/06/03 08:52:30;;;;;;;9.32;8.63;;;23.90;56.20;;;;;;5052908;28;20021;-31
2021/06/03 08:54:56;;;;;;;9.60;8.80;;;23.70;56.60;;;;;;5028955;28;20025;-31
2021/06/03 08:57:22;;;;;;;9.27;8.50;;;23.90;56.30;;;;;;5051290;28;20032;-32
2021/06/03 08:59:48;;;;;;;8.57;7.88;;;23.90;56.10;;;;;;5050570;28;20059;-34
2021/06/03 09:02:14;;;;;;;8.48;7.78;;;24.20;55.60;;;;;;5055898;28;20410;-33
2021/06/03 09:04:42;;;;;;;8.98;8.13;;;24.20;55.50;;;;;;5056829;28;20029;-33
2021/06/03 09:07:27;;;;;;;9.85;8.85;;;23.90;56.00;;;;;;5038449;28;20119;-30
2021/06/03 09:09:52;;;;;;;9.38;8.52;;;23.70;56.70;;;;;;5055674;28;20052;-31
2021/06/03 09:12:18;;;;;;;9.73;8.82;;;23.60;57.20;;;;;;5038668;28;20025;-31
2021/06/03 09:14:44;;;;;;;9.20;8.40;;;23.30;57.90;;;;;;5055524;28;20486;-31
2021/06/03 09:17:10;;;;;;;8.82;8.07;;;23.20;58.70;;;;;;5055935;28;20046;-29
2021/06/03 09:19:50;;;;;;;8.50;7.80;;;23.30;58.10;;;;;;5039955;28;20025;-30
2021/06/03 09:22:37;;;;;;;9.75;8.90;;;23.20;58.20;;;;;;5055621;28;20035;-32
2021/06/03 09:25:29;;;;;;;9.77;8.98;;;23.50;57.70;;;;;;5039712;28;20494;-31
2021/06/03 09:27:54;;;;;;;9.18;8.38;;;23.60;57.50;;;;;;5037480;28;20514;-33
2021/06/03 09:30:20;;;;;;;9.60;8.85;;;23.70;57.20;;;;;;5055975;28;20041;-34
2021/06/03 09:32:52;;;;;;;10.15;9.35;;;23.70;57.40;;;;;;5055750;28;20025;-35
2021/06/03 09:35:18;;;;;;;9.98;8.90;;;23.60;57.60;;;;;;5055341;28;20111;-30
2021/06/03 09:37:44;;;;;;;9.35;8.65;;;23.50;58.10;;;;;;5056156;28;20108;-31
2021/06/03 09:40:20;;;;;;;9.43;8.60;;;23.30;58.40;;;;;;5054101;28;20029;-33
2021/06/03 09:43:04;;;;;;;10.10;9.20;;;23.40;58.20;;;;;;5055146;28;20036;-29
2021/06/03 09:45:57;;;;;;;9.70;9.00;;;23.30;58.50;;;;;;5055968;28;20025;-29
2021/06/03 09:48:37;;;;;;;10.10;9.20;;;23.30;58.70;;;;;;5027825;28;20120;-35
2021/06/03 09:51:22;;;;;;;10.85;9.85;;;23.30;59.00;;;;;;5055924;28;20119;-31
2021/06/03 09:53:54;;;;;;;10.82;9.95;;;23.40;58.90;;;;;;5055839;28;20028;-31
2021/06/03 09:56:28;;;;;;;10.75;9.80;;;23.40;58.80;;;;;;5055763;28;20024;-31
2021/06/03 09:58:54;;;;;;;10.60;9.90;;;23.50;58.70;;;;;;5056478;28;20025;-33
2021/06/03 10:01:44;;;;;;;10.15;9.25;;;23.60;58.70;;;;;;5055109;28;20049;-33
2021/06/03 10:04:11;;;;;;;10.85;9.77;;;23.30;59.30;;;;;;5058153;28;20013;-36
2021/06/03 10:06:58;;;;;;;11.35;10.25;;;23.30;59.40;;;;;;5041434;28;20037;-31
2021/06/03 10:09:41;;;;;;;11.75;10.65;;;23.30;59.30;;;;;;5055787;28;20533;-31
2021/06/03 10:12:08;;;;;;;10.82;10.02;;;23.40;59.40;;;;;;5053803;28;20025;-33
2021/06/03 10:14:33;;;;;;;11.63;10.43;;;23.50;59.00;;;;;;5054514;28;20025;-35
2021/06/03 10:17:13;;;;;;;10.90;10.05;;;23.40;60.20;;;;;;5052933;28;20040;-33
2021/06/03 10:19:39;;;;;;;10.43;9.52;;;23.50;59.20;;;;;;5043956;28;20025;-33
2021/06/03 10:22:16;;;;;;;10.45;9.50;;;23.70;58.60;;;;;;5053508;28;20514;-35
2021/06/03 10:24:49;;;;;;;12.13;11.10;;;23.50;59.30;;;;;;4701346;28;10000289;-35
2021/06/03 10:27:15;;;;;;;10.35;9.57;;;23.60;59.20;;;;;;5061236;28;20549;-36
2021/06/03 10:29:41;;;;;;;10.63;9.75;;;23.40;59.70;;;;;;5057706;28;20128;-36
2021/06/03 10:32:07;;;;;;;11.30;10.18;;;23.50;60.00;;;;;;5063092;28;20108;-30
2021/06/03 10:34:33;;;;;;;13.10;11.80;;;23.50;59.90;;;;;;5068411;28;20070;-33
2021/06/03 10:36:59;;;;;;;11.10;10.00;;;23.60;59.80;;;;;;5043415;28;20025;-32
2021/06/03 10:39:25;;;;;;;11.07;10.07;;;23.60;59.60;;;;;;5054414;28;20040;-30
2021/06/03 10:41:51;;;;;;;11.50;10.50;;;23.50;60.20;;;;;;5055114;28;20040;-32
2021/06/03 10:44:16;;;;;;;11.18;10.10;;;23.50;60.20;;;;;;5053126;28;20021;-30
2021/06/03 10:46:43;;;;;;;12.50;11.30;;;23.50;61.70;;;;;;5053237;28;20025;-32
2021/06/03 10:49:09;;;;;;;12.50;11.40;;;23.40;61.30;;;;;;5031661;28;20040;-31
2021/06/03 10:51:34;;;;;;;11.02;10.05;;;23.40;61.50;;;;;;5049386;28;20148;-34
2021/06/03 10:54:00;;;;;;;11.63;10.52;;;23.40;61.80;;;;;;5032534;28;20522;-33
2021/06/03 10:56:27;;;;;;;11.77;10.77;;;23.40;61.90;;;;;;5050144;28;20032;-37
2021/06/03 10:58:53;;;;;;;12.25;11.13;;;23.40;61.80;;;;;;5051310;28;20033;-33
2021/06/03 11:01:20;;;;;;;12.27;10.95;;;23.60;61.70;;;;;;5049667;28;20059;-32
2021/06/03 11:03:50;;;;;;;10.75;9.80;;;23.70;61.10;;;;;;5049819;28;20163;-30
2021/06/03 11:06:17;;;;;;;11.52;10.52;;;23.80;61.70;;;;;;5035166;28;20037;-35
2021/06/03 11:08:47;;;;;;;12.95;11.65;;;23.50;62.60;;;;;;5050273;28;20418;-32
2021/06/03 11:11:13;;;;;;;11.95;10.95;;;23.40;63.20;;;;;;5049762;28;20760;-35
2021/06/03 11:13:58;;;;;;;12.38;11.27;;;23.40;63.00;;;;;;5049357;28;20024;-38
2021/06/03 11:16:24;;;;;;;13.02;11.90;;;23.60;62.30;;;;;;5048298;28;20057;-38
2021/06/03 11:18:53;;;;;;;11.82;10.70;;;23.50;63.00;;;;;;5050810;28;20025;-34
2021/06/03 11:21:31;;;;;;;11.65;10.27;;;23.50;62.50;;;;;;5049321;28;20032;-38
2021/06/03 11:24:34;;;;;;;11.65;10.65;;;23.60;62.50;;;;;;5048495;28;20082;-34
2021/06/03 11:27:13;;;;;;;10.40;9.52;;;23.70;62.40;;;;;;5052595;28;20479;-31
2021/06/03 11:29:54;;;;;;;11.90;10.73;;;23.70;61.90;;;;;;5052623;28;20087;-33
2021/06/03 11:32:21;;;;;;;12.55;11.30;;;23.90;61.60;;;;;;5053472;28;20491;-35
2021/06/03 11:34:51;;;;;;;10.27;9.35;;;23.80;61.70;;;;;;5053768;28;20078;-34
2021/06/03 11:37:35;;;;;;;10.95;9.85;;;23.90;61.40;;;;;;5052908;28;20043;-30
2021/06/03 11:40:07;;;;;;;11.40;10.40;;;23.70;61.90;;;;;;5051528;28;20024;-37
2021/06/03 11:42:36;;;;;;;11.13;10.27;;;23.70;62.00;;;;;;5053404;28;20041;-34
2021/06/03 11:45:17;;;;;;;11.88;10.73;;;23.80;61.20;;;;;;5053264;28;20128;-37
2021/06/03 11:47:43;;;;;;;11.88;10.90;;;24.00;60.60;;;;;;5053349;28;20049;-31
2021/06/03 11:50:12;;;;;;;11.43;10.32;;;24.10;60.30;;;;;;5053332;28;20539;-35
2021/06/03 11:52:38;;;;;;;11.00;10.10;;;24.20;60.20;;;;;;5053506;28;20487;-27
2021/06/03 11:55:05;;;;;;;11.07;10.07;;;24.20;60.00;;;;;;5034542;28;20039;-32
2021/06/03 11:57:33;;;;;;;10.40;9.45;;;24.30;60.00;;;;;;5054733;28;20384;-32
2021/06/03 12:00:08;;;;;;;12.63;10.73;;;24.30;60.00;;;;;;5053066;28;20057;-33
2021/06/03 12:02:38;;;;;;;12.02;11.02;;;24.30;60.00;;;;;;5052399;28;20044;-34
2021/06/03 12:05:13;;;;;;;11.25;10.25;;;24.40;60.10;;;;;;5053294;28;20494;-34
2021/06/03 12:07:52;;;;;;;11.00;10.13;;;24.40;60.20;;;;;;5037408;28;20108;-37
2021/06/03 12:10:18;;;;;;;11.07;10.25;;;24.40;60.70;;;;;;5052388;28;20033;-31
2021/06/03 12:12:44;;;;;;;11.15;10.25;;;24.40;60.70;;;;;;5061453;28;20020;-33
2021/06/03 12:15:39;;;;;;;10.32;9.52;;;24.30;61.00;;;;;;5058307;28;20086;-34
2021/06/03 12:18:04;;;;;;;;;;;24.30;61.40;;;;;;5037022;28;20113;-31
2021/06/03 12:20:30;;;;;;;9.43;8.73;;;24.20;61.50;;;;;;5060681;28;20367;-31
2021/06/03 12:23:05;;;;;;;10.57;9.68;;;24.20;63.10;;;;;;5052954;28;20061;-33
2021/06/03 12:25:34;;;;;;;11.05;10.15;;;23.90;63.00;;;;;;5053095;28;20033;-33
2021/06/03 12:28:00;;;;;;;11.38;10.55;;;23.60;64.00;;;;;;5052139;28;20021;-32
2021/06/03 12:30:29;;;;;;;9.73;9.02;;;23.80;63.40;;;;;;5052833;28;20461;-32
2021/06/03 12:33:01;;;;;;;10.23;9.43;;;23.90;62.60;;;;;;5053032;28;20048;-35
2021/06/03 12:35:47;;;;;;;10.40;9.50;;;24.10;62.30;;;;;;5053454;28;20052;-36
2021/06/03 12:38:29;;;;;;;8.50;7.80;;;24.20;61.80;;;;;;5052122;28;20056;-32
2021/06/03 12:40:56;;;;;;;8.98;8.25;;;24.30;61.70;;;;;;5053039;28;20119;-33
2021/06/03 12:43:22;;;;;;;9.40;8.70;;;24.20;61.70;;;;;;5052897;28;20048;-30
2021/06/03 12:45:47;;;;;;;8.50;8.00;;;24.30;61.30;;;;;;5051853;28;20075;-33
2021/06/03 12:48:13;;;;;;;7.85;7.35;;;24.40;60.90;;;;;;5052761;28;20025;-33